Ana Sayfa
METAR-TAF:

METAR-TAF

Havaalanları :

Washington, Virginia, Amerika Birleşik Devletleri

Enlem: 38-56-05N, Boylam: 077-26-51W, yükseklik: 95 m

Güncel hava durumu gözlemi

Rapor saat 08:52 UTC de 1 saat ve 6 dakika önce yapıldı.
Rüzgar kuzey/kuzeybatıdan 3 kt
Sıcaklık -6°C
Nem 86%
Basınç 1022 hPa
Görüş mesafesi: 16.1 km
Açık gökyüzü

METAR: KIAD 110852Z 33003KT 10SM CLR M06/M08 A3018 RMK AO2 SLP223 T10611078 58003 $

Saat: 04:58 (09:58 UTC)

Tahmin

Rapor saat 09:13 UTC de 45 dakika önce yapıldı.
Ayın 11'si saat 09 UTC'den ayın 12'si saat 12 UTC'ye kadar geçerli Tahmin
Rüzgar değişken yönden 3 kt
Görüş mesafesi: 10 km
25000 ft yükseklikte az bulutlu
Ayın 11'si saat 1600 UTC'den
Rüzgar batıdan 6 kt
Görüş mesafesi: 10 km
Açık gökyüzü
Ayın 11'si saat 2200 UTC'den
Rüzgar güneybatıdan 4 kt
Görüş mesafesi: 10 km
Açık gökyüzü

TAF: KIAD 110913Z 1109/1212 VRB03KT P6SM FEW250 FM111600 27006KT P6SM SKC FM112200 23004KT P6SM SKC

4.000'den fazla havaalanı için hava durumu gözlemleri ve tahminleri (METAR ve TAF raporları).

Kullanılabilir istasyonlar harita üzerinde sarı ve kırmızı noktalarla gösterilir.

İstasyonun adını görmek için fareyi noktanın üzerinde gezdirin.

Sonrasında hava gözlem ve tahminlerini görmek için tıklayın.

Haritayı değiştirmek için: yaklaştırmak için siyah artı işaretli yeşil düğmeye ve uzaklaştırmak için de eksi işaretli düğmeye hızla tıklayın; bitişik haritalar için yeşil okları kullanın.


METAR-TAF: